Time;durP1;ratioP1;P1;durP2;ratioP2;P2;SDS_P1;SDS_P2;PMS_P1;PMS_P2;Temp;Humidity;BMP_temperature;BMP_pressure;BME280_temperature;BME280_humidity;BME280_pressure;Samples;Min_cycle;Max_cycle;Signal;HPM_P1;HPM_P2
2023/03/05 00:01:23;;;;;;;3.15;1.83;;;;;;;9.01;88.79;100870.19;7402652;19;20018;-58
2023/03/05 00:03:52;;;;;;;5.38;2.55;;;;;;;8.99;88.62;100867.84;7401156;19;20490;-58
2023/03/05 00:06:24;;;;;;;6.45;2.35;;;;;;;8.96;89.10;100865.97;7401189;19;20015;-58
2023/03/05 00:08:52;;;;;;;1.92;1.58;;;;;;;9.02;89.34;100866.22;7400613;19;20026;-58
2023/03/05 00:11:19;;;;;;;3.13;2.88;;;;;;;9.03;90.06;100870.56;7403022;19;20459;-58
2023/03/05 00:13:45;;;;;;;2.08;1.88;;;;;;;9.03;90.08;100862.22;7400701;19;20021;-58
2023/03/05 00:16:14;;;;;;;5.32;3.03;;;;;;;9.04;90.12;100861.00;7400728;19;20115;-58
2023/03/05 00:18:40;;;;;;;2.30;2.10;;;;;;;9.07;90.07;100849.75;7401493;19;20014;-58
2023/03/05 00:21:19;;;;;;;3.05;1.88;;;;;;;9.09;90.17;100844.56;7405055;19;20358;-58
2023/03/05 00:23:46;;;;;;;5.35;2.33;;;;;;;9.13;89.87;100848.03;7400125;19;20011;-58
2023/03/05 00:26:12;;;;;;;4.10;1.73;;;;;;;9.19;90.24;100853.78;7399498;19;20010;-58
2023/03/05 00:28:39;;;;;;;6.07;1.65;;;;;;;9.13;90.17;100836.13;7400866;19;20039;-58
2023/03/05 00:31:05;;;;;;;2.42;1.55;;;;;;;9.12;90.34;100840.88;7400823;19;20081;-58
2023/03/05 00:33:31;;;;;;;3.88;2.50;;;;;;;9.08;90.19;100837.44;7398654;19;20018;-58
2023/03/05 00:36:01;;;;;;;4.03;2.63;;;;;;;9.03;90.18;100826.09;7399872;19;20044;-58
2023/03/05 00:38:27;;;;;;;3.50;1.48;;;;;;;8.93;90.72;100827.97;7400340;19;20014;-58
2023/03/05 00:40:53;;;;;;;3.80;1.98;;;;;;;8.85;91.39;100823.84;7401324;19;20015;-58
2023/03/05 00:43:19;;;;;;;6.20;2.03;;;;;;;8.84;91.70;100825.03;7399416;19;20014;-58
2023/03/05 00:45:45;;;;;;;1.77;1.67;;;;;;;8.75;92.09;100824.13;7397826;19;20016;-58
2023/03/05 00:48:12;;;;;;;5.70;2.90;;;;;;;8.70;92.97;100819.13;7397326;19;20007;-58
2023/03/05 00:50:38;;;;;;;4.28;1.65;;;;;;;8.69;93.06;100823.09;7398849;19;20066;-58
2023/03/05 00:53:04;;;;;;;7.68;1.70;;;;;;;8.70;93.18;100822.69;7397610;19;20018;-58
2023/03/05 00:55:30;;;;;;;1.70;1.60;;;;;;;8.78;92.57;100818.47;7396487;19;20018;-58
2023/03/05 00:57:56;;;;;;;4.68;2.40;;;;;;;8.68;92.84;100816.00;7396528;19;20023;-58
2023/03/05 01:00:23;;;;;;;2.10;1.88;;;;;;;8.93;92.13;100802.16;7402427;19;20013;-58
2023/03/05 01:02:49;;;;;;;4.82;2.13;;;;;;;8.95;91.96;100808.06;7398054;19;20014;-58
2023/03/05 01:05:15;;;;;;;2.95;1.52;;;;;;;8.92;91.53;100801.38;7397751;19;20078;-58
2023/03/05 01:07:41;;;;;;;3.67;1.65;;;;;;;8.92;91.68;100795.81;7398166;19;20015;-58
2023/03/05 01:10:09;;;;;;;10.02;2.70;;;;;;;8.91;91.63;100799.84;7397583;19;20025;-58
2023/03/05 01:12:36;;;;;;;1.73;1.65;;;;;;;8.86;91.64;100792.03;7397113;19;20014;-58
2023/03/05 01:15:04;;;;;;;1.08;0.90;;;;;;;8.93;91.46;100791.84;7396483;19;20094;-58
2023/03/05 01:17:30;;;;;;;3.85;2.08;;;;;;;8.90;91.65;100792.72;7399091;19;20035;-58
2023/03/05 01:19:56;;;;;;;3.20;1.98;;;;;;;8.86;92.34;100783.72;7399956;19;20027;-58
2023/03/05 01:22:23;;;;;;;1.42;1.33;;;;;;;8.87;92.75;100781.72;7402005;19;20007;-58
2023/03/05 01:24:49;;;;;;;10.00;1.95;;;;;;;8.86;92.35;100775.38;7395718;19;20011;-58
2023/03/05 01:27:15;;;;;;;2.05;1.00;;;;;;;8.85;92.78;100779.41;7396077;19;20014;-58
2023/03/05 01:29:41;;;;;;;1.75;1.65;;;;;;;8.85;92.90;100784.94;7400428;19;20066;-58
2023/03/05 01:32:07;;;;;;;16.23;2.80;;;;;;;8.85;93.41;100773.84;7400861;19;20048;-58
2023/03/05 01:34:36;;;;;;;0.95;0.95;;;;;;;8.85;93.32;100773.84;7395103;19;20024;-58
2023/03/05 01:37:02;;;;;;;1.55;1.45;;;;;;;8.84;93.21;100771.47;7398354;19;20010;-58
2023/03/05 01:39:29;;;;;;;3.80;2.33;;;;;;;8.79;93.57;100770.03;7397705;19;20015;-58
2023/03/05 01:41:55;;;;;;;4.72;2.88;;;;;;;8.76;93.85;100770.13;7401192;19;20029;-58
2023/03/05 01:44:24;;;;;;;5.35;2.08;;;;;;;8.80;94.08;100765.25;7396916;19;20038;-56
2023/03/05 01:46:51;;;;;;;5.78;1.63;;;;;;;8.83;93.95;100764.38;7395003;19;20014;-57
2023/03/05 01:49:19;;;;;;;2.38;1.95;;;;;;;8.78;93.82;100751.81;7395683;19;20027;-58
2023/03/05 01:51:49;;;;;;;5.00;1.85;;;;;;;8.76;94.23;100747.91;7400568;19;20014;-58
2023/03/05 01:54:18;;;;;;;3.72;1.75;;;;;;;8.76;94.35;100751.47;7397401;19;20026;-58
2023/03/05 01:56:48;;;;;;;4.57;2.13;;;;;;;8.78;94.78;100754.59;7395618;19;20014;-58
2023/03/05 01:59:16;;;;;;;0.82;0.82;;;;;;;8.78;95.05;100749.03;7397087;19;20013;-58
2023/03/05 02:01:47;;;;;;;3.45;1.15;;;;;;;8.80;94.98;100743.81;7398569;19;20026;-58
2023/03/05 02:04:16;;;;;;;4.03;2.22;;;;;;;8.79;94.88;100733.16;7394413;19;20011;-58
2023/03/05 02:06:43;;;;;;;1.13;1.13;;;;;;;8.79;95.01;100733.16;7395260;19;20498;-58
2023/03/05 02:09:10;;;;;;;1.88;1.70;;;;;;;8.78;95.53;100735.16;7391952;19;20006;-58
2023/03/05 02:11:37;;;;;;;4.55;2.55;;;;;;;8.78;95.61;100724.03;7397750;19;20003;-58
2023/03/05 02:14:05;;;;;;;9.10;2.33;;;;;;;8.74;95.63;100723.38;7395797;19;20410;-58
2023/03/05 02:16:35;;;;;;;6.78;3.25;;;;;;;8.75;95.25;100718.59;7394948;19;20011;-58
2023/03/05 02:19:09;;;;;;;1.60;1.50;;;;;;;8.74;94.60;100715.03;7396235;19;20024;-58
2023/03/05 02:21:42;;;;;;;0.95;0.73;;;;;;;8.71;94.07;100713.16;7398452;19;20017;-58
2023/03/05 02:24:11;;;;;;;2.10;1.38;;;;;;;8.66;94.35;100704.59;7394516;19;20011;-58
2023/03/05 02:26:38;;;;;;;2.15;1.25;;;;;;;8.66;94.55;100705.38;7395689;19;20010;-58
2023/03/05 02:29:07;;;;;;;1.58;1.02;;;;;;;8.56;94.80;100695.34;7395668;19;20011;-58
2023/03/05 02:31:37;;;;;;;1.45;1.35;;;;;;;8.53;95.68;100699.03;7399028;19;20028;-58
2023/03/05 02:34:05;;;;;;;2.75;0.93;;;;;;;8.50;95.94;100697.13;7395701;19;20770;-58
2023/03/05 02:36:32;;;;;;;1.00;1.00;;;;;;;8.71;94.72;100696.47;7394639;19;20105;-58
2023/03/05 02:38:58;;;;;;;3.05;1.70;;;;;;;8.74;94.53;100703.16;7393218;19;20014;-58
2023/03/05 02:41:25;;;;;;;4.57;2.00;;;;;;;8.71;94.65;100707.59;7394832;19;20486;-58
2023/03/05 02:43:52;;;;;;;4.50;2.10;;;;;;;8.72;94.59;100691.72;7392438;19;20010;-58
2023/03/05 02:46:19;;;;;;;1.70;1.60;;;;;;;8.76;94.36;100697.94;7396105;19;20003;-58
2023/03/05 02:48:45;;;;;;;7.10;2.22;;;;;;;8.80;94.01;100699.38;7395184;19;20014;-58
2023/03/05 02:51:13;;;;;;;2.38;2.17;;;;;;;8.78;94.37;100689.94;7396051;19;20018;-58
2023/03/05 02:53:42;;;;;;;1.60;1.50;;;;;;;8.77;94.01;100689.16;7395625;19;20036;-57
2023/03/05 02:56:08;;;;;;;1.80;0.88;;;;;;;8.76;94.18;100684.84;7395220;19;20037;-57
2023/03/05 02:58:35;;;;;;;2.70;1.55;;;;;;;8.75;94.17;100683.25;7393994;19;20007;-57
2023/03/05 03:01:01;;;;;;;2.08;1.35;;;;;;;8.75;94.65;100674.19;7395768;19;20067;-57
2023/03/05 03:03:28;;;;;;;11.90;1.65;;;;;;;8.69;94.73;100670.38;7393821;19;20007;-58
2023/03/05 03:05:54;;;;;;;1.38;1.23;;;;;;;8.71;95.16;100667.94;7395039;19;20015;-58
2023/03/05 03:08:20;;;;;;;4.75;1.60;;;;;;;8.72;94.61;100659.19;7392819;19;20106;-58
2023/03/05 03:10:46;;;;;;;5.70;2.95;;;;;;;8.68;94.67;100644.63;7394882;19;20338;-63
2023/03/05 03:13:12;;;;;;;1.13;1.13;;;;;;;8.74;94.64;100628.97;7394479;19;20040;-57
2023/03/05 03:15:39;;;;;;;1.05;0.85;;;;;;;8.80;94.41;100632.72;7394861;19;20013;-56
2023/03/05 03:18:05;;;;;;;0.93;0.93;;;;;;;8.79;94.45;100624.84;7394549;19;20473;-56
2023/03/05 03:20:33;;;;;;;1.38;1.38;;;;;;;8.76;94.63;100623.75;7397704;19;20018;-56
2023/03/05 03:23:00;;;;;;;5.13;1.98;;;;;;;8.70;95.14;100622.75;7393495;19;20007;-56
2023/03/05 03:25:26;;;;;;;3.70;1.23;;;;;;;8.66;95.27;100616.53;7393386;19;20020;-58
2023/03/05 03:27:52;;;;;;;1.33;1.27;;;;;;;8.72;95.47;100619.50;7392978;19;20015;-58
2023/03/05 03:30:18;;;;;;;1.92;1.63;;;;;;;8.71;95.58;100617.94;7397633;19;20021;-58
2023/03/05 03:32:45;;;;;;;1.38;1.27;;;;;;;8.74;95.88;100615.06;7393934;19;20050;-57
2023/03/05 03:35:11;;;;;;;3.50;2.58;;;;;;;8.78;95.53;100607.41;7393767;19;20010;-58
2023/03/05 03:37:38;;;;;;;3.00;2.42;;;;;;;8.81;95.65;100603.75;7393795;19;20121;-58
2023/03/05 03:40:05;;;;;;;6.10;1.88;;;;;;;8.80;95.43;100596.63;7394359;19;20003;-58
2023/03/05 03:42:32;;;;;;;3.08;1.65;;;;;;;8.80;95.64;100599.41;7393955;19;20379;-58
2023/03/05 03:44:59;;;;;;;6.07;1.63;;;;;;;8.79;95.38;100597.84;7394520;19;20074;-58
2023/03/05 03:47:25;;;;;;;1.35;0.80;;;;;;;8.82;95.34;100591.41;7392946;19;20025;-58
2023/03/05 03:49:54;;;;;;;4.97;1.92;;;;;;;8.82;95.12;100596.19;7393656;19;20339;-58
2023/03/05 03:52:21;;;;;;;1.88;1.30;;;;;;;8.85;95.20;100593.31;7397129;19;20030;-58
2023/03/05 03:54:51;;;;;;;6.63;1.35;;;;;;;8.81;94.91;100589.88;7392953;19;20015;-58
2023/03/05 03:57:17;;;;;;;1.52;1.42;;;;;;;8.85;94.86;100589.75;7393615;19;20086;-58
2023/03/05 03:59:44;;;;;;;2.92;1.17;;;;;;;8.91;94.67;100583.19;7396402;19;20056;-58
2023/03/05 04:02:11;;;;;;;1.15;1.08;;;;;;;8.90;94.86;100576.06;7397360;19;20011;-58
2023/03/05 04:04:37;;;;;;;5.90;1.48;;;;;;;8.92;94.59;100579.16;7393700;19;20355;-58
2023/03/05 04:07:03;;;;;;;1.27;1.23;;;;;;;8.87;94.34;100570.63;7392090;19;20035;-58
2023/03/05 04:09:29;;;;;;;1.65;1.50;;;;;;;9.01;93.69;100581.25;7392049;19;20074;-58
2023/03/05 04:11:56;;;;;;;7.20;2.80;;;;;;;9.14;92.78;100585.56;7396502;19;20034;-58
2023/03/05 04:14:22;;;;;;;1.52;1.42;;;;;;;9.16;92.29;100574.00;7393179;19;20347;-58
2023/03/05 04:16:48;;;;;;;2.17;2.00;;;;;;;9.18;91.87;100575.13;7393287;19;20015;-58
2023/03/05 04:19:14;;;;;;;3.90;1.67;;;;;;;9.15;92.11;100566.91;7394447;19;20015;-58
2023/03/05 04:21:40;;;;;;;4.78;2.05;;;;;;;9.14;91.89;100563.34;7395853;19;20011;-58
2023/03/05 04:24:07;;;;;;;2.47;1.75;;;;;;;9.12;92.23;100560.25;7393399;19;20127;-58
2023/03/05 04:26:34;;;;;;;6.60;1.45;;;;;;;9.09;92.16;100561.16;7391570;19;20014;-58
2023/03/05 04:29:00;;;;;;;0.73;0.73;;;;;;;9.05;92.51;100549.34;7393993;19;20007;-57
2023/03/05 04:31:26;;;;;;;8.30;1.60;;;;;;;8.91;92.91;100547.06;7394916;19;20397;-57
2023/03/05 04:33:52;;;;;;;3.30;0.95;;;;;;;8.87;93.12;100538.09;7398962;19;20024;-57
2023/03/05 04:36:19;;;;;;;1.70;1.33;;;;;;;8.75;93.99;100541.63;7399556;19;20078;-57
2023/03/05 04:38:45;;;;;;;3.08;2.70;;;;;;;8.79;94.30;100536.75;7399574;19;20035;-58
2023/03/05 04:41:11;;;;;;;2.00;1.27;;;;;;;8.77;93.92;100538.44;7399602;19;20010;-57
2023/03/05 04:43:38;;;;;;;5.50;2.33;;;;;;;8.82;94.63;100535.06;7395375;19;20011;-57
2023/03/05 04:46:04;;;;;;;4.53;1.42;;;;;;;8.82;94.45;100529.53;7395239;19;20414;-57
2023/03/05 04:48:30;;;;;;;16.00;2.40;;;;;;;8.81;94.39;100528.78;7392513;19;20706;-57
2023/03/05 04:50:56;;;;;;;1.45;1.10;;;;;;;8.95;93.62;100519.16;7396039;19;20015;-57
2023/03/05 04:53:22;;;;;;;0.95;0.95;;;;;;;9.00;93.27;100508.28;7395689;19;20014;-57
2023/03/05 04:55:55;;;;;;;2.60;1.63;;;;;;;9.00;93.75;100511.06;7396209;19;20056;-57
2023/03/05 04:58:22;;;;;;;3.22;1.27;;;;;;;9.01;93.84;100509.03;7398796;19;20022;-57
2023/03/05 05:00:48;;;;;;;1.20;0.90;;;;;;;9.03;93.83;100512.16;7403134;19;20498;-57
2023/03/05 05:03:15;;;;;;;6.75;1.20;;;;;;;9.06;93.83;100506.47;7399159;19;20006;-57
2023/03/05 05:05:41;;;;;;;1.05;0.65;;;;;;;9.05;93.77;100506.94;7398742;19;20014;-57
2023/03/05 05:08:07;;;;;;;7.38;2.25;;;;;;;8.97;94.06;100503.59;7397632;19;20015;-57
2023/03/05 05:10:33;;;;;;;3.53;2.10;;;;;;;8.92;94.72;100504.16;7399693;19;20030;-57
2023/03/05 05:12:59;;;;;;;2.83;1.38;;;;;;;8.90;94.89;100501.06;7397386;19;20014;-57
2023/03/05 05:15:26;;;;;;;1.42;1.33;;;;;;;8.87;95.41;100492.84;7397921;19;20634;-57
2023/03/05 05:17:52;;;;;;;3.47;1.38;;;;;;;8.90;95.71;100492.72;7398765;19;20007;-57
2023/03/05 05:20:18;;;;;;;7.22;1.92;;;;;;;8.97;95.24;100486.94;7400568;19;20473;-57
2023/03/05 05:22:45;;;;;;;3.72;1.63;;;;;;;8.93;95.11;100489.06;7398589;19;20383;-57
2023/03/05 05:25:11;;;;;;;2.75;1.65;;;;;;;8.95;94.89;100478.28;7398211;19;20014;-57
2023/03/05 05:27:38;;;;;;;1.42;1.25;;;;;;;8.99;95.00;100472.59;7396759;19;20014;-57
2023/03/05 05:30:06;;;;;;;0.88;0.40;;;;;;;8.99;94.57;100478.94;7401495;19;20014;-58
2023/03/05 05:32:32;;;;;;;1.48;1.35;;;;;;;8.96;94.32;100471.50;7397812;19;20017;-57
2023/03/05 05:34:59;;;;;;;1.85;1.45;;;;;;;8.93;94.65;100469.63;7398312;19;20021;-57
2023/03/05 05:37:26;;;;;;;1.98;0.98;;;;;;;8.87;95.14;100465.88;7398334;19;20033;-57
2023/03/05 05:39:52;;;;;;;1.20;1.02;;;;;;;8.84;95.22;100466.75;7397432;19;20018;-57
2023/03/05 05:42:21;;;;;;;2.50;2.35;;;;;;;8.84;95.34;100466.75;7402542;19;20033;-57
2023/03/05 05:44:47;;;;;;;3.10;2.28;;;;;;;8.86;95.38;100453.19;7394842;19;20007;-57
2023/03/05 05:47:14;;;;;;;1.58;1.48;;;;;;;8.86;95.65;100458.75;7394927;19;20030;-57
2023/03/05 05:49:41;;;;;;;0.90;0.90;;;;;;;8.87;95.73;100460.31;7397869;19;20015;-57
2023/03/05 05:52:08;;;;;;;0.38;0.38;;;;;;;8.85;95.60;100460.00;7400402;19;20011;-57
2023/03/05 05:54:34;;;;;;;0.82;0.73;;;;;;;8.84;95.54;100466.75;7396692;19;20038;-57
2023/03/05 05:57:00;;;;;;;2.95;1.88;;;;;;;8.83;95.94;100453.31;7395930;19;20020;-57
2023/03/05 05:59:26;;;;;;;4.43;1.25;;;;;;;8.83;96.07;100465.22;7399215;19;20014;-57
2023/03/05 06:01:53;;;;;;;5.78;2.75;;;;;;;8.80;96.03;100446.66;7400755;19;20011;-57
2023/03/05 06:04:19;;;;;;;4.43;1.55;;;;;;;8.79;95.96;100447.13;7396546;19;20022;-57
2023/03/05 06:06:45;;;;;;;3.65;1.40;;;;;;;8.76;96.61;100453.56;7395204;19;20014;-58
2023/03/05 06:09:11;;;;;;;6.32;2.38;;;;;;;8.62;97.14;100438.16;7397220;19;20018;-57
2023/03/05 06:11:37;;;;;;;2.58;1.58;;;;;;;8.62;97.23;100437.41;7399294;19;20074;-57
2023/03/05 06:14:07;;;;;;;1.63;0.90;;;;;;;8.58;97.59;100417.28;7394263;19;20360;-57
2023/03/05 06:16:33;;;;;;;0.77;0.77;;;;;;;8.59;97.78;100416.84;7393611;19;20041;-57
2023/03/05 06:19:03;;;;;;;1.20;0.93;;;;;;;8.57;97.47;100424.84;7395729;19;20066;-57
2023/03/05 06:21:29;;;;;;;0.60;0.60;;;;;;;8.58;96.72;100418.06;7397945;19;20018;-57
2023/03/05 06:23:57;;;;;;;3.95;1.13;;;;;;;8.61;97.05;100417.19;7394543;19;20361;-57
2023/03/05 06:26:24;;;;;;;5.55;1.27;;;;;;;8.57;97.37;100410.19;7394699;19;20026;-57
2023/03/05 06:28:50;;;;;;;2.72;1.80;;;;;;;8.49;98.10;100401.31;7394720;19;20011;-57
2023/03/05 06:31:24;;;;;;;1.08;1.08;;;;;;;8.44;98.84;100410.22;7397371;19;20070;-57
2023/03/05 06:33:51;;;;;;;1.98;1.63;;;;;;;8.49;98.94;100395.00;7396320;19;20019;-57
2023/03/05 06:36:20;;;;;;;1.42;1.40;;;;;;;8.50;98.83;100397.34;7395625;19;20085;-57
2023/03/05 06:38:46;;;;;;;0.95;0.95;;;;;;;8.59;98.43;100394.66;7395252;19;20483;-58
2023/03/05 06:41:16;;;;;;;5.88;1.90;;;;;;;8.70;98.43;100395.06;7397311;19;20010;-58
2023/03/05 06:43:44;;;;;;;1.55;1.13;;;;;;;8.84;97.22;100391.00;7396388;19;20012;-58
2023/03/05 06:46:19;;;;;;;11.48;1.35;;;;;;;8.92;96.68;100395.09;7395661;19;20017;-57
2023/03/05 06:48:46;;;;;;;1.10;1.00;;;;;;;8.92;96.07;100395.84;7394214;19;20010;-57
2023/03/05 06:51:15;;;;;;;3.22;0.73;;;;;;;8.95;95.87;100394.16;7397151;19;20014;-57
2023/03/05 06:53:43;;;;;;;1.67;1.52;;;;;;;8.94;95.50;100396.16;7395294;19;20038;-57
2023/03/05 06:56:09;;;;;;;2.63;1.60;;;;;;;8.97;95.50;100398.03;7394617;19;20017;-57
2023/03/05 06:58:36;;;;;;;1.58;1.48;;;;;;;8.98;96.06;100398.81;7395868;19;20011;-58
2023/03/05 07:01:05;;;;;;;1.90;1.80;;;;;;;9.00;96.13;100402.72;7398004;19;20018;-57
2023/03/05 07:03:32;;;;;;;0.75;0.75;;;;;;;8.99;95.89;100395.59;7395596;19;20014;-57
2023/03/05 07:06:01;;;;;;;0.93;0.93;;;;;;;8.98;96.35;100388.50;7395800;19;20016;-57
2023/03/05 07:08:28;;;;;;;1.52;1.42;;;;;;;9.00;95.95;100393.59;7393012;19;20036;-57
2023/03/05 07:10:54;;;;;;;1.63;1.05;;;;;;;8.98;96.37;100388.50;7396632;19;20015;-57
2023/03/05 07:13:20;;;;;;;3.70;1.67;;;;;;;9.00;96.25;100390.81;7395194;19;20023;-57
2023/03/05 07:15:46;;;;;;;0.80;0.80;;;;;;;9.01;95.78;100393.13;7394329;19;20648;-57
2023/03/05 07:18:12;;;;;;;5.45;1.42;;;;;;;9.02;96.48;100388.38;7394255;19;20014;-57
2023/03/05 07:20:39;;;;;;;3.05;1.80;;;;;;;9.01;96.09;100382.03;7398005;19;20014;-57
2023/03/05 07:23:05;;;;;;;10.40;2.20;;;;;;;8.90;96.84;100375.31;7395091;19;20106;-57
2023/03/05 07:25:31;;;;;;;2.55;1.60;;;;;;;9.08;96.70;100370.66;7395038;19;20014;-57
2023/03/05 07:27:57;;;;;;;2.38;2.17;;;;;;;9.10;96.58;100367.41;7392910;19;20014;-57
2023/03/05 07:30:23;;;;;;;1.33;1.00;;;;;;;9.01;96.05;100365.34;7397444;19;20514;-57
2023/03/05 07:32:50;;;;;;;2.47;1.27;;;;;;;9.02;95.95;100366.91;7392851;19;20022;-57
2023/03/05 07:35:16;;;;;;;3.35;1.17;;;;;;;9.06;96.14;100356.44;7393835;19;20470;-57
2023/03/05 07:37:42;;;;;;;1.65;1.55;;;;;;;9.09;96.39;100349.22;7393560;19;20022;-57
2023/03/05 07:40:09;;;;;;;6.40;3.00;;;;;;;9.02;95.63;100341.91;7394497;19;20370;-57
2023/03/05 07:42:35;;;;;;;2.10;1.92;;;;;;;9.03;96.55;100335.13;7392097;19;20058;-57
2023/03/05 07:45:13;;;;;;;13.13;1.70;;;;;;;9.07;96.51;100330.19;7394705;19;20014;-57
2023/03/05 07:47:41;;;;;;;4.78;2.05;;;;;;;9.07;96.79;100329.44;7396930;19;20014;-57
2023/03/05 07:50:08;;;;;;;2.00;1.10;;;;;;;9.12;96.92;100326.84;7392575;19;20010;-57
2023/03/05 07:52:35;;;;;;;1.85;1.30;;;;;;;9.15;96.52;100314.84;7392899;19;20392;-57
2023/03/05 07:55:01;;;;;;;1.65;1.55;;;;;;;9.24;96.51;100321.66;7390858;19;20021;-57
2023/03/05 07:57:30;;;;;;;6.32;1.67;;;;;;;9.29;96.39;100323.88;7393685;19;20110;-56
2023/03/05 07:59:57;;;;;;;3.63;2.00;;;;;;;9.37;95.98;100330.69;7394698;19;20011;-56
2023/03/05 08:02:24;;;;;;;1.20;1.20;;;;;;;9.42;95.58;100327.31;7396726;19;20011;-56
2023/03/05 08:04:52;;;;;;;2.72;1.63;;;;;;;9.46;94.60;100330.75;7393017;19;20035;-56
2023/03/05 08:07:19;;;;;;;3.58;1.30;;;;;;;9.43;94.39;100326.84;7392275;19;20031;-56
2023/03/05 08:09:46;;;;;;;2.30;1.42;;;;;;;9.43;94.41;100328.84;7398707;19;20014;-56
2023/03/05 08:12:14;;;;;;;1.95;1.05;;;;;;;9.46;94.73;100327.97;7404344;19;20010;-56
2023/03/05 08:14:41;;;;;;;1.42;1.35;;;;;;;9.48;94.38;100328.28;7399101;19;20015;-56
2023/03/05 08:17:08;;;;;;;5.00;1.42;;;;;;;9.46;94.85;100322.41;7398710;19;20011;-56
2023/03/05 08:19:35;;;;;;;3.50;2.20;;;;;;;9.42;94.97;100316.97;7400627;19;20466;-57
2023/03/05 08:22:03;;;;;;;6.20;3.10;;;;;;;9.45;95.12;100316.06;7402952;19;20011;-56
2023/03/05 08:24:29;;;;;;;18.27;2.97;;;;;;;9.48;95.32;100309.59;7399066;19;20534;-56
2023/03/05 08:26:57;;;;;;;11.63;4.13;;;;;;;9.53;94.70;100305.44;7399333;19;20010;-56
2023/03/05 08:29:25;;;;;;;14.68;3.67;;;;;;;9.60;95.01;100299.59;7400091;19;20449;-56
2023/03/05 08:31:53;;;;;;;17.88;4.82;;;;;;;9.60;94.80;100299.59;7403539;19;20400;-56
2023/03/05 08:34:20;;;;;;;7.47;3.63;;;;;;;9.70;95.12;100293.59;7398751;19;20026;-56
2023/03/05 08:36:49;;;;;;;16.55;3.13;;;;;;;9.75;94.53;100300.56;7400009;19;20074;-56
2023/03/05 08:39:18;;;;;;;6.57;2.05;;;;;;;9.79;94.17;100296.41;7397603;19;20017;-56
2023/03/05 08:41:45;;;;;;;3.60;1.60;;;;;;;9.83;93.97;100301.84;7402228;19;20010;-56
2023/03/05 08:44:12;;;;;;;2.38;1.48;;;;;;;9.95;94.03;100287.00;7398053;19;20015;-56
2023/03/05 08:46:41;;;;;;;3.70;1.73;;;;;;;9.99;93.75;100287.63;7398652;19;20022;-56
2023/03/05 08:49:09;;;;;;;4.50;2.17;;;;;;;10.00;93.39;100269.72;7398086;19;20372;-56
2023/03/05 08:51:36;;;;;;;2.72;1.38;;;;;;;9.96;93.39;100271.88;7401577;19;20014;-56
2023/03/05 08:54:05;;;;;;;2.63;2.38;;;;;;;9.98;94.16;100269.41;7397697;19;20463;-56
2023/03/05 08:56:33;;;;;;;1.08;1.08;;;;;;;9.90;94.05;100268.13;7400482;19;20014;-56
2023/03/05 08:59:00;;;;;;;8.48;2.47;;;;;;;9.82;95.07;100272.47;7400998;19;20396;-56
2023/03/05 09:01:27;;;;;;;0.80;0.80;;;;;;;9.84;95.41;100264.44;7401688;19;20022;-56
2023/03/05 09:03:53;;;;;;;5.07;1.98;;;;;;;9.89;95.62;100261.06;7398954;19;20006;-56
2023/03/05 09:06:19;;;;;;;2.38;1.33;;;;;;;9.91;95.81;100259.34;7398156;19;20470;-57
2023/03/05 09:08:45;;;;;;;1.45;1.20;;;;;;;9.86;96.34;100256.41;7396419;19;20086;-56
2023/03/05 09:11:12;;;;;;;1.15;1.15;;;;;;;9.84;96.96;100256.09;7401382;19;20011;-56
2023/03/05 09:13:39;;;;;;;3.65;1.45;;;;;;;9.91;97.20;100244.66;7398980;19;20014;-56
2023/03/05 09:16:12;;;;;;;1.50;1.40;;;;;;;10.00;97.40;100243.91;7398645;19;20471;-56
2023/03/05 09:18:39;;;;;;;13.75;1.77;;;;;;;10.17;97.23;100239.63;7398707;19;20518;-56
2023/03/05 09:21:07;;;;;;;6.32;2.17;;;;;;;10.31;97.64;100239.75;7402936;19;20458;-56
2023/03/05 09:23:33;;;;;;;4.75;1.33;;;;;;;10.40;95.83;100244.56;7398525;19;20016;-56
2023/03/05 09:26:00;;;;;;;1.23;1.20;;;;;;;10.45;95.82;100230.81;7396627;19;20027;-57
2023/03/05 09:28:26;;;;;;;3.63;0.90;;;;;;;10.43;95.31;100236.06;7394084;19;20018;-56
2023/03/05 09:30:52;;;;;;;3.58;1.55;;;;;;;10.56;95.00;100228.31;7400266;19;20027;-56
2023/03/05 09:33:18;;;;;;;1.38;1.23;;;;;;;10.68;94.09;100221.78;7396118;19;20019;-56
2023/03/05 09:35:44;;;;;;;7.72;1.98;;;;;;;10.89;94.18;100224.84;7395475;19;20083;-56
2023/03/05 09:38:10;;;;;;;1.83;0.85;;;;;;;11.07;93.74;100210.81;7395348;19;20021;-56
2023/03/05 09:40:47;;;;;;;3.90;1.63;;;;;;;11.25;91.99;100219.13;7396258;19;21348;-56
2023/03/05 09:43:35;;;;;;;2.05;1.27;;;;;;;11.28;90.21;100207.03;7395794;19;20014;-56
2023/03/05 09:46:04;;;;;;;5.15;1.58;;;;;;;11.35;90.26;100201.09;7396403;19;20017;-56
2023/03/05 09:48:50;;;;;;;5.47;2.05;;;;;;;11.36;89.16;100200.66;7393124;19;20014;-56
2023/03/05 09:51:28;;;;;;;0.77;0.77;;;;;;;11.41;88.93;100193.66;7397494;19;20025;-56
2023/03/05 09:54:05;;;;;;;2.22;1.60;;;;;;;11.43;88.90;100191.16;7395544;19;20015;-56
2023/03/05 09:56:35;;;;;;;5.47;1.50;;;;;;;11.54;89.32;100185.06;7393104;19;20007;-56
2023/03/05 09:59:31;;;;;;;5.32;2.53;;;;;;;11.59;88.79;100182.38;7394454;19;20011;-56
2023/03/05 10:02:11;;;;;;;3.50;2.55;;;;;;;11.71;88.74;100170.25;7398163;19;20011;-56
2023/03/05 10:04:45;;;;;;;2.35;0.98;;;;;;;11.83;88.31;100176.81;7395148;19;20011;-56
2023/03/05 10:07:14;;;;;;;6.80;1.60;;;;;;;11.87;87.26;100185.78;7392145;19;20074;-57
2023/03/05 10:10:03;;;;;;;4.18;1.48;;;;;;;11.96;86.62;100178.13;7394505;19;20014;-57
2023/03/05 10:12:49;;;;;;;1.45;1.35;;;;;;;12.02;86.54;100176.22;7393212;19;20011;-57
2023/03/05 10:15:29;;;;;;;3.95;1.40;;;;;;;11.96;85.25;100158.59;7394280;19;20078;-57
2023/03/05 10:18:33;;;;;;;1.40;1.27;;;;;;;11.92;84.00;100162.81;7393955;19;20039;-56
2023/03/05 10:21:23;;;;;;;2.33;0.90;;;;;;;11.98;84.72;100153.28;7397631;19;20010;-56
2023/03/05 10:27:12;;;;;;;0.57;0.40;;;;;;;12.14;82.84;100150.06;7428252;19;20371;-56
2023/03/05 10:30:08;;;;;;;0.63;0.63;;;;;;;12.31;82.67;100152.38;7429263;19;20352;-56
2023/03/05 10:32:56;;;;;;;0.52;0.52;;;;;;;12.40;81.60;100139.09;7426028;19;20017;-56
2023/03/05 10:35:31;;;;;;;2.40;0.82;;;;;;;12.44;80.73;100141.69;7426731;19;20379;-56
2023/03/05 10:38:23;;;;;;;0.77;0.75;;;;;;;12.49;80.54;100141.81;7426569;19;20003;-57
2023/03/05 10:40:54;;;;;;;0.77;0.77;;;;;;;12.53;78.91;100128.41;7425286;19;20014;-57
2023/03/05 10:43:33;;;;;;;0.50;0.50;;;;;;;12.52;77.92;100137.25;7426393;19;20015;-57
2023/03/05 10:46:02;;;;;;;0.50;0.50;;;;;;;12.52;77.55;100128.88;7425970;19;20022;-57
2023/03/05 10:48:57;;;;;;;0.57;0.57;;;;;;;12.65;76.53;100120.97;7429356;19;20014;-57
2023/03/05 10:51:29;;;;;;;1.90;0.88;;;;;;;12.64;75.65;100130.63;7430478;19;20102;-57
2023/03/05 10:54:17;;;;;;;1.13;1.08;;;;;;;12.71;76.10;100124.66;7429575;19;20011;-57
2023/03/05 10:56:43;;;;;;;1.52;1.40;;;;;;;12.75;75.71;100114.03;7426656;19;20014;-57
2023/03/05 10:59:09;;;;;;;1.48;0.90;;;;;;;12.84;75.12;100111.13;7430608;19;20341;-57
2023/03/05 11:01:36;;;;;;;1.85;0.82;;;;;;;12.93;75.64;100113.78;7432615;19;20023;-57
2023/03/05 11:04:05;;;;;;;0.45;0.45;;;;;;;12.99;75.28;100113.91;7428737;19;20033;-58
2023/03/05 11:06:33;;;;;;;0.50;0.50;;;;;;;12.78;73.34;100102.66;7429305;19;20014;-57
2023/03/05 11:09:16;;;;;;;2.10;1.45;;;;;;;12.65;73.61;100099.41;7428336;19;20024;-57
2023/03/05 11:11:44;;;;;;;1.77;1.08;;;;;;;12.68;74.84;100092.06;7431478;19;20020;-57
2023/03/05 11:14:30;;;;;;;5.80;0.93;;;;;;;12.79;74.50;100087.44;7428183;19;20006;-57
2023/03/05 11:16:56;;;;;;;22.45;3.50;;;;;;;12.79;73.64;100083.88;7428787;19;20489;-56
2023/03/05 11:19:34;;;;;;;4.35;2.45;;;;;;;12.71;73.21;100079.94;7429416;19;20015;-58
2023/03/05 11:22:09;;;;;;;8.63;1.63;;;;;;;12.74;72.40;100084.53;7432171;19;20018;-58
2023/03/05 11:24:36;;;;;;;8.00;1.58;;;;;;;12.83;73.26;100076.81;7427535;19;20014;-58
2023/03/05 11:27:22;;;;;;;15.85;3.78;;;;;;;13.02;73.80;100068.94;7426619;19;20025;-58
2023/03/05 11:29:48;;;;;;;5.25;1.38;;;;;;;13.23;71.93;100059.34;7430482;19;20505;-58
2023/03/05 11:32:20;;;;;;;0.98;0.98;;;;;;;13.34;69.68;100053.91;7431176;19;20010;-58
2023/03/05 11:34:46;;;;;;;0.60;0.57;;;;;;;13.44;69.68;100052.50;7426667;19;20356;-58
2023/03/05 11:37:26;;;;;;;0.40;0.40;;;;;;;13.38;68.82;100043.25;7411650;19;20015;-58
2023/03/05 11:40:19;;;;;;;1.10;1.00;;;;;;;13.23;67.55;100045.38;7398748;19;20018;-58
2023/03/05 11:42:54;;;;;;;1.90;1.42;;;;;;;13.15;67.37;100041.44;7397815;19;20010;-59